Portada
METAR-TAF:

METAR-TAF

Aeroports :

Melun, França

latitud: 48-37N, longitud: 002-41E, altitud: 95 m

Observació

L'informe es va fer fa 25 minuts, a les 15:00 UTC
Vent 20 kt del Nord-Oest
Temperatura 9°C
Humitat 61%
Pressió 1014 hPa
Visibilitat 10 km o més
Escasses núvols a una alçada de 4200 ft

METAR: LFPM 091500Z AUTO 32020KT 9999 FEW042 09/02 Q1014

Hora: 16:25 (15:25 UTC)


TAF: manca

Observacions i pronòstics meteorològics de més de 4000 aeroports (METAR i TAF).

Les estacions disponibles són els punts grocs i vermells al mapa.

Posi el ratolí al punt desitjat per veure el nom de l'estació.

Feu clic per veure les observacions i els pronòstics meteorològics.

Per canviar el mapa: feu clic els botons verds amb una creu de color negre per apropar; al botó verd amb un guió per allunyar la imatge; o en les fletxes verdes per a mapes adjacents.


METAR-TAF: